sensor_id;sensor_type;location;lat;lon;timestamp;P1;durP1;ratioP1;P2;durP2;ratioP2
36797;SDS011;22748;8.426;99.512;2024-02-26T00:02:12;29.20;;;19.73;;
36797;SDS011;22748;8.426;99.512;2024-02-26T00:04:43;30.35;;;21.05;;
36797;SDS011;22748;8.426;99.512;2024-02-26T00:07:12;33.45;;;22.38;;
36797;SDS011;22748;8.426;99.512;2024-02-26T00:09:42;29.08;;;19.83;;
36797;SDS011;22748;8.426;99.512;2024-02-26T00:12:12;28.25;;;19.85;;
36797;SDS011;22748;8.426;99.512;2024-02-26T00:14:48;42.30;;;37.70;;
36797;SDS011;22748;8.426;99.512;2024-02-26T00:17:19;23.58;;;21.17;;
36797;SDS011;22748;8.426;99.512;2024-02-26T00:19:49;24.92;;;19.50;;
36797;SDS011;22748;8.426;99.512;2024-02-26T00:22:19;25.93;;;19.07;;
36797;SDS011;22748;8.426;99.512;2024-02-26T00:24:50;22.55;;;18.25;;
36797;SDS011;22748;8.426;99.512;2024-02-26T00:27:24;22.75;;;20.35;;
36797;SDS011;22748;8.426;99.512;2024-02-26T00:29:56;29.42;;;26.23;;
36797;SDS011;22748;8.426;99.512;2024-02-26T00:32:26;26.02;;;20.70;;
36797;SDS011;22748;8.426;99.512;2024-02-26T00:34:56;25.90;;;22.00;;
36797;SDS011;22748;8.426;99.512;2024-02-26T00:37:26;28.10;;;20.75;;
36797;SDS011;22748;8.426;99.512;2024-02-26T00:39:56;32.63;;;23.55;;
36797;SDS011;22748;8.426;99.512;2024-02-26T00:42:25;34.70;;;28.13;;
36797;SDS011;22748;8.426;99.512;2024-02-26T00:44:57;37.72;;;26.65;;
36797;SDS011;22748;8.426;99.512;2024-02-26T00:47:27;56.30;;;45.00;;
36797;SDS011;22748;8.426;99.512;2024-02-26T00:49:57;43.63;;;33.22;;
36797;SDS011;22748;8.426;99.512;2024-02-26T00:52:27;42.10;;;34.97;;
36797;SDS011;22748;8.426;99.512;2024-02-26T00:54:57;96.35;;;59.40;;
36797;SDS011;22748;8.426;99.512;2024-02-26T00:57:28;74.50;;;57.60;;
36797;SDS011;22748;8.426;99.512;2024-02-26T01:00:05;95.13;;;74.88;;
36797;SDS011;22748;8.426;99.512;2024-02-26T01:02:36;59.10;;;44.17;;
36797;SDS011;22748;8.426;99.512;2024-02-26T01:05:08;38.58;;;31.83;;
36797;SDS011;22748;8.426;99.512;2024-02-26T01:07:38;35.60;;;24.73;;
36797;SDS011;22748;8.426;99.512;2024-02-26T01:10:09;46.53;;;32.08;;
36797;SDS011;22748;8.426;99.512;2024-02-26T01:12:38;34.37;;;25.60;;
36797;SDS011;22748;8.426;99.512;2024-02-26T01:15:16;30.50;;;23.17;;
36797;SDS011;22748;8.426;99.512;2024-02-26T01:17:50;29.98;;;21.65;;
36797;SDS011;22748;8.426;99.512;2024-02-26T01:20:20;34.97;;;25.10;;
36797;SDS011;22748;8.426;99.512;2024-02-26T01:22:51;31.63;;;23.15;;
36797;SDS011;22748;8.426;99.512;2024-02-26T01:25:20;27.40;;;23.43;;
36797;SDS011;22748;8.426;99.512;2024-02-26T01:27:50;29.92;;;24.15;;
36797;SDS011;22748;8.426;99.512;2024-02-26T01:30:26;29.80;;;23.42;;
36797;SDS011;22748;8.426;99.512;2024-02-26T01:32:56;30.95;;;22.60;;
36797;SDS011;22748;8.426;99.512;2024-02-26T01:35:26;27.40;;;21.20;;
36797;SDS011;22748;8.426;99.512;2024-02-26T01:37:58;27.58;;;21.27;;
36797;SDS011;22748;8.426;99.512;2024-02-26T01:40:29;27.73;;;20.55;;
36797;SDS011;22748;8.426;99.512;2024-02-26T01:42:59;26.02;;;19.88;;
36797;SDS011;22748;8.426;99.512;2024-02-26T01:45:35;34.47;;;26.27;;
36797;SDS011;22748;8.426;99.512;2024-02-26T01:48:05;40.03;;;27.52;;
36797;SDS011;22748;8.426;99.512;2024-02-26T01:50:35;38.97;;;26.42;;
36797;SDS011;22748;8.426;99.512;2024-02-26T01:53:05;34.73;;;26.03;;
36797;SDS011;22748;8.426;99.512;2024-02-26T01:55:37;34.65;;;24.15;;
36797;SDS011;22748;8.426;99.512;2024-02-26T01:58:07;36.25;;;25.10;;
36797;SDS011;22748;8.426;99.512;2024-02-26T02:00:47;35.53;;;24.73;;
36797;SDS011;22748;8.426;99.512;2024-02-26T02:03:17;31.85;;;23.67;;
36797;SDS011;22748;8.426;99.512;2024-02-26T02:05:48;31.80;;;21.67;;
36797;SDS011;22748;8.426;99.512;2024-02-26T02:08:19;25.15;;;19.27;;
36797;SDS011;22748;8.426;99.512;2024-02-26T02:10:49;23.70;;;18.50;;
36797;SDS011;22748;8.426;99.512;2024-02-26T02:13:22;23.92;;;18.23;;
36797;SDS011;22748;8.426;99.512;2024-02-26T02:15:54;21.08;;;17.63;;
36797;SDS011;22748;8.426;99.512;2024-02-26T02:18:25;56.42;;;44.35;;
36797;SDS011;22748;8.426;99.512;2024-02-26T02:21:01;31.45;;;24.70;;
36797;SDS011;22748;8.426;99.512;2024-02-26T02:23:31;33.40;;;25.15;;
36797;SDS011;22748;8.426;99.512;2024-02-26T02:26:01;48.42;;;33.78;;
36797;SDS011;22748;8.426;99.512;2024-02-26T02:28:32;37.20;;;27.52;;
36797;SDS011;22748;8.426;99.512;2024-02-26T02:31:02;34.70;;;25.20;;
36797;SDS011;22748;8.426;99.512;2024-02-26T02:33:32;27.85;;;22.45;;
36797;SDS011;22748;8.426;99.512;2024-02-26T02:36:10;26.05;;;20.30;;
36797;SDS011;22748;8.426;99.512;2024-02-26T02:38:48;22.92;;;18.52;;
36797;SDS011;22748;8.426;99.512;2024-02-26T02:41:19;23.92;;;19.05;;
36797;SDS011;22748;8.426;99.512;2024-02-26T02:43:50;24.63;;;19.55;;
36797;SDS011;22748;8.426;99.512;2024-02-26T02:46:19;23.27;;;19.48;;
36797;SDS011;22748;8.426;99.512;2024-02-26T02:48:50;24.65;;;18.80;;
36797;SDS011;22748;8.426;99.512;2024-02-26T02:51:27;21.25;;;18.17;;
36797;SDS011;22748;8.426;99.512;2024-02-26T02:53:57;27.08;;;21.63;;
36797;SDS011;22748;8.426;99.512;2024-02-26T02:56:28;27.25;;;20.45;;
36797;SDS011;22748;8.426;99.512;2024-02-26T02:58:58;29.77;;;20.77;;
36797;SDS011;22748;8.426;99.512;2024-02-26T03:01:29;26.00;;;20.90;;
36797;SDS011;22748;8.426;99.512;2024-02-26T03:04:00;25.08;;;18.55;;
36797;SDS011;22748;8.426;99.512;2024-02-26T03:06:39;29.63;;;19.77;;
36797;SDS011;22748;8.426;99.512;2024-02-26T03:09:09;28.90;;;20.38;;
36797;SDS011;22748;8.426;99.512;2024-02-26T03:11:39;24.63;;;20.30;;
36797;SDS011;22748;8.426;99.512;2024-02-26T03:14:09;28.07;;;20.57;;
36797;SDS011;22748;8.426;99.512;2024-02-26T03:16:40;20.55;;;18.30;;
36797;SDS011;22748;8.426;99.512;2024-02-26T03:19:10;30.20;;;20.45;;
36797;SDS011;22748;8.426;99.512;2024-02-26T03:21:44;26.30;;;19.33;;
36797;SDS011;22748;8.426;99.512;2024-02-26T03:24:14;23.90;;;19.80;;
36797;SDS011;22748;8.426;99.512;2024-02-26T03:26:44;22.42;;;19.55;;
36797;SDS011;22748;8.426;99.512;2024-02-26T03:29:14;21.15;;;18.88;;
36797;SDS011;22748;8.426;99.512;2024-02-26T03:31:46;26.90;;;19.58;;
36797;SDS011;22748;8.426;99.512;2024-02-26T03:36:48;21.10;;;17.30;;
36797;SDS011;22748;8.426;99.512;2024-02-26T03:39:20;24.35;;;16.50;;
36797;SDS011;22748;8.426;99.512;2024-02-26T03:41:50;19.48;;;16.40;;
36797;SDS011;22748;8.426;99.512;2024-02-26T03:44:20;16.77;;;14.93;;
36797;SDS011;22748;8.426;99.512;2024-02-26T03:46:51;18.23;;;15.80;;
36797;SDS011;22748;8.426;99.512;2024-02-26T03:49:22;25.65;;;15.73;;
36797;SDS011;22748;8.426;99.512;2024-02-26T03:51:58;19.88;;;15.50;;
36797;SDS011;22748;8.426;99.512;2024-02-26T03:54:29;21.83;;;15.55;;
36797;SDS011;22748;8.426;99.512;2024-02-26T03:56:59;19.10;;;15.73;;
36797;SDS011;22748;8.426;99.512;2024-02-26T03:59:28;21.08;;;16.15;;
36797;SDS011;22748;8.426;99.512;2024-02-26T04:01:58;22.95;;;16.23;;
36797;SDS011;22748;8.426;99.512;2024-02-26T04:04:28;26.17;;;17.08;;
36797;SDS011;22748;8.426;99.512;2024-02-26T04:07:04;20.70;;;16.10;;
36797;SDS011;22748;8.426;99.512;2024-02-26T04:09:35;19.60;;;14.93;;
36797;SDS011;22748;8.426;99.512;2024-02-26T04:12:07;20.38;;;16.05;;
36797;SDS011;22748;8.426;99.512;2024-02-26T04:14:37;20.33;;;15.52;;
36797;SDS011;22748;8.426;99.512;2024-02-26T04:17:06;20.38;;;15.43;;
36797;SDS011;22748;8.426;99.512;2024-02-26T04:22:12;22.95;;;16.63;;
36797;SDS011;22748;8.426;99.512;2024-02-26T04:24:42;30.30;;;17.00;;
36797;SDS011;22748;8.426;99.512;2024-02-26T04:27:12;21.65;;;15.82;;
36797;SDS011;22748;8.426;99.512;2024-02-26T04:29:43;17.70;;;15.70;;
36797;SDS011;22748;8.426;99.512;2024-02-26T04:34:43;27.58;;;15.75;;
36797;SDS011;22748;8.426;99.512;2024-02-26T04:39:49;18.70;;;13.82;;
36797;SDS011;22748;8.426;99.512;2024-02-26T04:42:19;16.30;;;13.85;;
36797;SDS011;22748;8.426;99.512;2024-02-26T04:44:50;19.90;;;14.60;;
36797;SDS011;22748;8.426;99.512;2024-02-26T04:49:55;15.23;;;13.70;;
36797;SDS011;22748;8.426;99.512;2024-02-26T04:52:28;18.20;;;15.10;;
36797;SDS011;22748;8.426;99.512;2024-02-26T04:55:07;17.60;;;14.88;;
36797;SDS011;22748;8.426;99.512;2024-02-26T04:57:37;21.30;;;14.13;;
36797;SDS011;22748;8.426;99.512;2024-02-26T05:02:40;18.83;;;13.77;;
36797;SDS011;22748;8.426;99.512;2024-02-26T05:05:13;20.15;;;14.13;;
36797;SDS011;22748;8.426;99.512;2024-02-26T05:07:43;20.40;;;13.43;;
36797;SDS011;22748;8.426;99.512;2024-02-26T05:10:17;17.45;;;13.48;;
36797;SDS011;22748;8.426;99.512;2024-02-26T05:12:47;14.27;;;12.40;;
36797;SDS011;22748;8.426;99.512;2024-02-26T05:15:24;16.30;;;11.40;;
36797;SDS011;22748;8.426;99.512;2024-02-26T05:17:56;15.05;;;12.05;;
36797;SDS011;22748;8.426;99.512;2024-02-26T05:20:26;21.15;;;12.73;;
36797;SDS011;22748;8.426;99.512;2024-02-26T05:22:56;15.30;;;11.93;;
36797;SDS011;22748;8.426;99.512;2024-02-26T05:25:40;16.70;;;11.32;;
36797;SDS011;22748;8.426;99.512;2024-02-26T05:28:14;18.40;;;11.60;;
36797;SDS011;22748;8.426;99.512;2024-02-26T05:30:46;18.20;;;11.93;;
36797;SDS011;22748;8.426;99.512;2024-02-26T05:33:16;16.35;;;11.35;;
36797;SDS011;22748;8.426;99.512;2024-02-26T05:35:50;16.85;;;11.10;;
36797;SDS011;22748;8.426;99.512;2024-02-26T05:38:20;15.90;;;12.07;;
36797;SDS011;22748;8.426;99.512;2024-02-26T05:41:03;19.30;;;12.38;;
36797;SDS011;22748;8.426;99.512;2024-02-26T05:43:37;17.88;;;11.60;;
36797;SDS011;22748;8.426;99.512;2024-02-26T05:46:07;16.30;;;10.80;;
36797;SDS011;22748;8.426;99.512;2024-02-26T05:48:37;17.13;;;11.07;;
36797;SDS011;22748;8.426;99.512;2024-02-26T05:51:07;15.47;;;11.20;;
36797;SDS011;22748;8.426;99.512;2024-02-26T05:53:37;16.03;;;10.97;;
36797;SDS011;22748;8.426;99.512;2024-02-26T05:56:16;15.00;;;10.73;;
36797;SDS011;22748;8.426;99.512;2024-02-26T05:58:46;15.38;;;9.70;;
36797;SDS011;22748;8.426;99.512;2024-02-26T06:01:20;16.88;;;9.48;;
36797;SDS011;22748;8.426;99.512;2024-02-26T06:03:51;15.57;;;9.67;;
36797;SDS011;22748;8.426;99.512;2024-02-26T06:06:22;21.95;;;9.90;;
36797;SDS011;22748;8.426;99.512;2024-02-26T06:08:53;16.40;;;9.35;;
36797;SDS011;22748;8.426;99.512;2024-02-26T06:11:37;14.82;;;9.18;;
36797;SDS011;22748;8.426;99.512;2024-02-26T06:14:09;12.60;;;9.15;;
36797;SDS011;22748;8.426;99.512;2024-02-26T06:16:41;17.38;;;9.48;;
36797;SDS011;22748;8.426;99.512;2024-02-26T06:19:11;16.27;;;9.52;;
36797;SDS011;22748;8.426;99.512;2024-02-26T06:21:41;14.25;;;8.65;;
36797;SDS011;22748;8.426;99.512;2024-02-26T06:24:18;16.25;;;9.50;;
36797;SDS011;22748;8.426;99.512;2024-02-26T06:26:57;14.10;;;8.98;;
36797;SDS011;22748;8.426;99.512;2024-02-26T06:29:27;13.38;;;8.73;;
36797;SDS011;22748;8.426;99.512;2024-02-26T06:31:57;11.75;;;8.82;;
36797;SDS011;22748;8.426;99.512;2024-02-26T06:34:29;13.80;;;9.13;;
36797;SDS011;22748;8.426;99.512;2024-02-26T06:36:59;13.80;;;9.02;;
36797;SDS011;22748;8.426;99.512;2024-02-26T06:39:30;15.45;;;9.80;;
36797;SDS011;22748;8.426;99.512;2024-02-26T06:42:07;16.65;;;10.00;;
36797;SDS011;22748;8.426;99.512;2024-02-26T06:44:38;14.05;;;9.07;;
36797;SDS011;22748;8.426;99.512;2024-02-26T06:47:09;15.07;;;8.52;;
36797;SDS011;22748;8.426;99.512;2024-02-26T06:49:41;16.45;;;9.55;;
36797;SDS011;22748;8.426;99.512;2024-02-26T06:52:11;19.57;;;8.73;;
36797;SDS011;22748;8.426;99.512;2024-02-26T06:54:43;14.30;;;8.45;;
36797;SDS011;22748;8.426;99.512;2024-02-26T06:57:19;19.77;;;8.85;;
36797;SDS011;22748;8.426;99.512;2024-02-26T06:59:51;12.85;;;8.73;;
36797;SDS011;22748;8.426;99.512;2024-02-26T07:02:21;17.40;;;9.05;;
36797;SDS011;22748;8.426;99.512;2024-02-26T07:04:52;12.93;;;8.27;;
36797;SDS011;22748;8.426;99.512;2024-02-26T07:07:22;14.57;;;8.70;;
36797;SDS011;22748;8.426;99.512;2024-02-26T07:09:54;13.77;;;8.77;;
36797;SDS011;22748;8.426;99.512;2024-02-26T07:12:31;17.80;;;8.60;;
36797;SDS011;22748;8.426;99.512;2024-02-26T07:15:01;15.85;;;8.80;;
36797;SDS011;22748;8.426;99.512;2024-02-26T07:17:32;16.88;;;8.48;;
36797;SDS011;22748;8.426;99.512;2024-02-26T07:20:02;14.30;;;9.07;;
36797;SDS011;22748;8.426;99.512;2024-02-26T07:22:36;13.82;;;8.98;;
36797;SDS011;22748;8.426;99.512;2024-02-26T07:25:07;14.98;;;8.98;;
36797;SDS011;22748;8.426;99.512;2024-02-26T07:27:46;14.02;;;8.30;;
36797;SDS011;22748;8.426;99.512;2024-02-26T07:30:17;12.55;;;8.30;;
36797;SDS011;22748;8.426;99.512;2024-02-26T07:33:02;12.27;;;7.88;;
36797;SDS011;22748;8.426;99.512;2024-02-26T07:41:32;13.48;;;7.57;;
36797;SDS011;22748;8.426;99.512;2024-02-26T07:44:07;14.95;;;8.23;;
36797;SDS011;22748;8.426;99.512;2024-02-26T07:46:38;14.85;;;7.90;;
36797;SDS011;22748;8.426;99.512;2024-02-26T07:49:09;15.07;;;8.50;;
36797;SDS011;22748;8.426;99.512;2024-02-26T07:51:42;15.82;;;9.13;;
36797;SDS011;22748;8.426;99.512;2024-02-26T07:54:12;11.90;;;8.30;;
36797;SDS011;22748;8.426;99.512;2024-02-26T07:56:42;13.02;;;9.00;;
36797;SDS011;22748;8.426;99.512;2024-02-26T07:59:15;14.67;;;8.67;;
36797;SDS011;22748;8.426;99.512;2024-02-26T08:01:49;18.38;;;9.07;;
36797;SDS011;22748;8.426;99.512;2024-02-26T08:04:20;13.88;;;8.57;;
36797;SDS011;22748;8.426;99.512;2024-02-26T08:06:51;14.68;;;9.63;;
36797;SDS011;22748;8.426;99.512;2024-02-26T08:09:27;16.08;;;9.45;;
36797;SDS011;22748;8.426;99.512;2024-02-26T08:11:59;20.73;;;11.02;;
36797;SDS011;22748;8.426;99.512;2024-02-26T08:14:33;13.07;;;9.35;;
36797;SDS011;22748;8.426;99.512;2024-02-26T08:17:03;13.50;;;8.98;;
36797;SDS011;22748;8.426;99.512;2024-02-26T08:19:37;13.60;;;9.20;;
36797;SDS011;22748;8.426;99.512;2024-02-26T08:22:10;13.68;;;9.18;;
36797;SDS011;22748;8.426;99.512;2024-02-26T08:24:44;14.25;;;9.80;;
36797;SDS011;22748;8.426;99.512;2024-02-26T08:29:52;15.02;;;9.60;;
36797;SDS011;22748;8.426;99.512;2024-02-26T08:32:24;15.13;;;10.27;;
36797;SDS011;22748;8.426;99.512;2024-02-26T08:34:54;16.27;;;10.25;;
36797;SDS011;22748;8.426;99.512;2024-02-26T08:37:23;14.82;;;10.07;;
36797;SDS011;22748;8.426;99.512;2024-02-26T08:39:53;18.92;;;10.52;;
36797;SDS011;22748;8.426;99.512;2024-02-26T08:42:23;16.90;;;9.73;;
36797;SDS011;22748;8.426;99.512;2024-02-26T08:44:59;16.17;;;9.63;;
36797;SDS011;22748;8.426;99.512;2024-02-26T08:47:29;14.38;;;9.52;;
36797;SDS011;22748;8.426;99.512;2024-02-26T08:50:00;17.45;;;10.52;;
36797;SDS011;22748;8.426;99.512;2024-02-26T08:52:31;16.63;;;10.43;;
36797;SDS011;22748;8.426;99.512;2024-02-26T08:55:02;18.20;;;9.80;;
36797;SDS011;22748;8.426;99.512;2024-02-26T08:57:33;15.40;;;9.45;;
36797;SDS011;22748;8.426;99.512;2024-02-26T09:00:11;22.92;;;10.55;;
36797;SDS011;22748;8.426;99.512;2024-02-26T09:02:43;14.02;;;9.20;;
36797;SDS011;22748;8.426;99.512;2024-02-26T09:05:13;18.25;;;10.25;;
36797;SDS011;22748;8.426;99.512;2024-02-26T09:07:44;15.15;;;9.93;;
36797;SDS011;22748;8.426;99.512;2024-02-26T09:10:15;18.20;;;10.68;;
36797;SDS011;22748;8.426;99.512;2024-02-26T09:12:46;15.52;;;10.40;;
36797;SDS011;22748;8.426;99.512;2024-02-26T09:18:26;16.00;;;10.10;;
36797;SDS011;22748;8.426;99.512;2024-02-26T09:20:56;17.52;;;10.05;;
36797;SDS011;22748;8.426;99.512;2024-02-26T09:23:27;17.90;;;10.43;;
36797;SDS011;22748;8.426;99.512;2024-02-26T09:25:58;15.23;;;10.15;;
36797;SDS011;22748;8.426;99.512;2024-02-26T09:28:28;16.80;;;10.57;;
36797;SDS011;22748;8.426;99.512;2024-02-26T09:31:05;18.98;;;10.57;;
36797;SDS011;22748;8.426;99.512;2024-02-26T09:33:43;18.40;;;9.88;;
36797;SDS011;22748;8.426;99.512;2024-02-26T09:36:13;18.25;;;10.25;;
36797;SDS011;22748;8.426;99.512;2024-02-26T09:38:43;17.35;;;10.65;;
36797;SDS011;22748;8.426;99.512;2024-02-26T09:41:14;18.25;;;10.50;;
36797;SDS011;22748;8.426;99.512;2024-02-26T09:43:44;16.05;;;10.38;;
36797;SDS011;22748;8.426;99.512;2024-02-26T09:46:17;17.13;;;10.23;;
36797;SDS011;22748;8.426;99.512;2024-02-26T09:48:53;15.48;;;10.40;;
36797;SDS011;22748;8.426;99.512;2024-02-26T09:51:23;13.68;;;10.40;;
36797;SDS011;22748;8.426;99.512;2024-02-26T09:53:55;13.95;;;9.38;;
36797;SDS011;22748;8.426;99.512;2024-02-26T09:56:30;16.15;;;10.48;;
36797;SDS011;22748;8.426;99.512;2024-02-26T09:59:01;16.60;;;11.60;;
36797;SDS011;22748;8.426;99.512;2024-02-26T10:01:34;14.25;;;9.63;;
36797;SDS011;22748;8.426;99.512;2024-02-26T10:04:09;17.77;;;10.70;;
36797;SDS011;22748;8.426;99.512;2024-02-26T10:06:42;17.73;;;11.10;;
36797;SDS011;22748;8.426;99.512;2024-02-26T10:09:13;17.98;;;12.32;;
36797;SDS011;22748;8.426;99.512;2024-02-26T10:11:44;21.52;;;13.55;;
36797;SDS011;22748;8.426;99.512;2024-02-26T10:14:16;23.85;;;13.43;;
36797;SDS011;22748;8.426;99.512;2024-02-26T10:16:48;25.17;;;13.07;;
36797;SDS011;22748;8.426;99.512;2024-02-26T10:19:28;20.70;;;11.23;;
36797;SDS011;22748;8.426;99.512;2024-02-26T10:22:00;19.33;;;11.02;;
36797;SDS011;22748;8.426;99.512;2024-02-26T10:24:31;16.85;;;10.98;;
36797;SDS011;22748;8.426;99.512;2024-02-26T10:27:03;14.52;;;10.98;;
36797;SDS011;22748;8.426;99.512;2024-02-26T10:29:34;18.17;;;11.10;;
36797;SDS011;22748;8.426;99.512;2024-02-26T10:32:04;16.25;;;10.57;;
36797;SDS011;22748;8.426;99.512;2024-02-26T10:34:44;21.70;;;10.75;;
36797;SDS011;22748;8.426;99.512;2024-02-26T10:37:14;14.82;;;10.85;;
36797;SDS011;22748;8.426;99.512;2024-02-26T10:39:46;15.25;;;10.32;;
36797;SDS011;22748;8.426;99.512;2024-02-26T10:42:16;24.48;;;11.07;;
36797;SDS011;22748;8.426;99.512;2024-02-26T10:44:47;15.75;;;11.13;;
36797;SDS011;22748;8.426;99.512;2024-02-26T10:47:29;26.27;;;11.15;;
36797;SDS011;22748;8.426;99.512;2024-02-26T10:53:05;19.98;;;10.40;;
36797;SDS011;22748;8.426;99.512;2024-02-26T10:55:40;21.10;;;10.70;;
36797;SDS011;22748;8.426;99.512;2024-02-26T10:58:26;21.85;;;11.43;;
36797;SDS011;22748;8.426;99.512;2024-02-26T11:00:57;20.38;;;11.18;;
36797;SDS011;22748;8.426;99.512;2024-02-26T11:03:40;17.63;;;10.75;;
36797;SDS011;22748;8.426;99.512;2024-02-26T11:06:11;21.08;;;11.52;;
36797;SDS011;22748;8.426;99.512;2024-02-26T11:11:35;20.77;;;11.43;;
36797;SDS011;22748;8.426;99.512;2024-02-26T11:14:10;18.23;;;11.23;;
36797;SDS011;22748;8.426;99.512;2024-02-26T11:16:45;22.88;;;11.23;;
36797;SDS011;22748;8.426;99.512;2024-02-26T11:19:15;22.33;;;12.18;;
36797;SDS011;22748;8.426;99.512;2024-02-26T11:21:46;18.45;;;11.05;;
36797;SDS011;22748;8.426;99.512;2024-02-26T11:24:16;17.25;;;11.15;;
36797;SDS011;22748;8.426;99.512;2024-02-26T11:26:53;18.85;;;11.27;;
36797;SDS011;22748;8.426;99.512;2024-02-26T11:29:26;17.58;;;11.48;;
36797;SDS011;22748;8.426;99.512;2024-02-26T11:31:59;25.00;;;12.65;;
36797;SDS011;22748;8.426;99.512;2024-02-26T11:34:34;20.10;;;13.40;;
36797;SDS011;22748;8.426;99.512;2024-02-26T11:37:10;18.47;;;12.93;;
36797;SDS011;22748;8.426;99.512;2024-02-26T11:39:43;20.55;;;13.48;;
36797;SDS011;22748;8.426;99.512;2024-02-26T11:42:17;20.42;;;12.73;;
36797;SDS011;22748;8.426;99.512;2024-02-26T11:44:47;18.63;;;12.50;;
36797;SDS011;22748;8.426;99.512;2024-02-26T11:47:18;16.90;;;11.93;;
36797;SDS011;22748;8.426;99.512;2024-02-26T11:49:50;17.70;;;12.35;;
36797;SDS011;22748;8.426;99.512;2024-02-26T11:52:20;24.88;;;18.05;;
36797;SDS011;22748;8.426;99.512;2024-02-26T11:54:51;21.17;;;15.00;;
36797;SDS011;22748;8.426;99.512;2024-02-26T11:57:38;23.45;;;14.80;;
36797;SDS011;22748;8.426;99.512;2024-02-26T12:00:13;28.27;;;16.88;;
36797;SDS011;22748;8.426;99.512;2024-02-26T12:05:24;23.85;;;14.25;;
36797;SDS011;22748;8.426;99.512;2024-02-26T12:07:59;24.75;;;14.75;;
36797;SDS011;22748;8.426;99.512;2024-02-26T12:10:31;23.58;;;14.23;;
36797;SDS011;22748;8.426;99.512;2024-02-26T12:13:14;23.73;;;14.30;;
36797;SDS011;22748;8.426;99.512;2024-02-26T12:15:55;22.58;;;14.13;;
36797;SDS011;22748;8.426;99.512;2024-02-26T12:18:28;22.63;;;13.93;;
36797;SDS011;22748;8.426;99.512;2024-02-26T12:21:02;20.80;;;13.75;;
36797;SDS011;22748;8.426;99.512;2024-02-26T12:23:33;22.70;;;13.93;;
36797;SDS011;22748;8.426;99.512;2024-02-26T12:26:04;20.55;;;13.52;;
36797;SDS011;22748;8.426;99.512;2024-02-26T12:28:43;20.88;;;14.07;;
36797;SDS011;22748;8.426;99.512;2024-02-26T12:31:20;24.50;;;14.55;;
36797;SDS011;22748;8.426;99.512;2024-02-26T12:33:56;24.98;;;14.20;;
36797;SDS011;22748;8.426;99.512;2024-02-26T12:36:30;21.63;;;14.27;;
36797;SDS011;22748;8.426;99.512;2024-02-26T12:39:02;19.23;;;13.93;;
36797;SDS011;22748;8.426;99.512;2024-02-26T12:41:47;23.98;;;14.18;;
36797;SDS011;22748;8.426;99.512;2024-02-26T12:44:34;21.05;;;14.30;;
36797;SDS011;22748;8.426;99.512;2024-02-26T12:47:10;23.92;;;12.95;;
36797;SDS011;22748;8.426;99.512;2024-02-26T12:49:43;23.15;;;12.90;;
36797;SDS011;22748;8.426;99.512;2024-02-26T12:52:18;23.90;;;12.80;;
36797;SDS011;22748;8.426;99.512;2024-02-26T12:54:55;20.50;;;12.27;;
36797;SDS011;22748;8.426;99.512;2024-02-26T12:57:26;22.17;;;12.90;;
36797;SDS011;22748;8.426;99.512;2024-02-26T13:00:02;18.55;;;12.30;;
36797;SDS011;22748;8.426;99.512;2024-02-26T13:02:34;20.70;;;14.35;;
36797;SDS011;22748;8.426;99.512;2024-02-26T13:05:07;22.75;;;13.75;;
36797;SDS011;22748;8.426;99.512;2024-02-26T13:07:44;21.13;;;13.35;;
36797;SDS011;22748;8.426;99.512;2024-02-26T13:10:15;20.85;;;13.48;;
36797;SDS011;22748;8.426;99.512;2024-02-26T13:12:47;20.77;;;13.73;;
36797;SDS011;22748;8.426;99.512;2024-02-26T13:15:26;20.42;;;13.52;;
36797;SDS011;22748;8.426;99.512;2024-02-26T13:18:12;22.07;;;12.97;;
36797;SDS011;22748;8.426;99.512;2024-02-26T13:20:46;22.50;;;13.52;;
36797;SDS011;22748;8.426;99.512;2024-02-26T13:23:19;21.60;;;13.02;;
36797;SDS011;22748;8.426;99.512;2024-02-26T13:25:57;21.02;;;13.18;;
36797;SDS011;22748;8.426;99.512;2024-02-26T13:28:31;23.30;;;12.50;;
36797;SDS011;22748;8.426;99.512;2024-02-26T13:31:16;24.10;;;12.60;;
36797;SDS011;22748;8.426;99.512;2024-02-26T13:33:46;20.20;;;12.73;;
36797;SDS011;22748;8.426;99.512;2024-02-26T13:36:21;19.95;;;12.25;;
36797;SDS011;22748;8.426;99.512;2024-02-26T13:38:54;18.98;;;11.63;;
36797;SDS011;22748;8.426;99.512;2024-02-26T13:41:26;21.38;;;13.40;;
36797;SDS011;22748;8.426;99.512;2024-02-26T13:44:00;20.45;;;13.52;;
36797;SDS011;22748;8.426;99.512;2024-02-26T13:46:33;24.17;;;13.65;;
36797;SDS011;22748;8.426;99.512;2024-02-26T13:49:02;22.00;;;13.07;;
36797;SDS011;22748;8.426;99.512;2024-02-26T13:51:34;26.10;;;15.27;;
36797;SDS011;22748;8.426;99.512;2024-02-26T13:54:04;26.30;;;17.25;;
36797;SDS011;22748;8.426;99.512;2024-02-26T13:56:35;27.80;;;16.17;;
36797;SDS011;22748;8.426;99.512;2024-02-26T13:59:08;28.73;;;15.85;;
36797;SDS011;22748;8.426;99.512;2024-02-26T14:01:57;24.98;;;16.33;;
36797;SDS011;22748;8.426;99.512;2024-02-26T14:04:33;25.48;;;16.77;;
36797;SDS011;22748;8.426;99.512;2024-02-26T14:07:04;22.13;;;16.63;;
36797;SDS011;22748;8.426;99.512;2024-02-26T14:09:37;26.75;;;17.98;;
36797;SDS011;22748;8.426;99.512;2024-02-26T14:12:07;37.83;;;20.08;;
36797;SDS011;22748;8.426;99.512;2024-02-26T14:14:45;31.10;;;18.88;;
36797;SDS011;22748;8.426;99.512;2024-02-26T14:17:25;28.50;;;18.95;;
36797;SDS011;22748;8.426;99.512;2024-02-26T14:20:04;23.95;;;17.58;;
36797;SDS011;22748;8.426;99.512;2024-02-26T14:22:39;39.80;;;25.08;;
36797;SDS011;22748;8.426;99.512;2024-02-26T14:25:15;45.22;;;29.45;;
36797;SDS011;22748;8.426;99.512;2024-02-26T14:28:01;37.65;;;24.30;;
36797;SDS011;22748;8.426;99.512;2024-02-26T14:30:48;34.92;;;25.15;;
36797;SDS011;22748;8.426;99.512;2024-02-26T14:33:25;42.58;;;29.85;;
36797;SDS011;22748;8.426;99.512;2024-02-26T14:36:09;38.47;;;26.60;;
36797;SDS011;22748;8.426;99.512;2024-02-26T14:38:44;38.90;;;26.83;;
36797;SDS011;22748;8.426;99.512;2024-02-26T14:41:23;38.65;;;25.40;;
36797;SDS011;22748;8.426;99.512;2024-02-26T14:43:54;39.45;;;26.27;;
36797;SDS011;22748;8.426;99.512;2024-02-26T14:46:31;37.28;;;24.73;;
36797;SDS011;22748;8.426;99.512;2024-02-26T14:49:13;32.75;;;21.55;;
36797;SDS011;22748;8.426;99.512;2024-02-26T14:51:47;32.05;;;22.85;;
36797;SDS011;22748;8.426;99.512;2024-02-26T14:54:17;34.15;;;21.50;;
36797;SDS011;22748;8.426;99.512;2024-02-26T14:56:50;33.40;;;21.35;;
36797;SDS011;22748;8.426;99.512;2024-02-26T14:59:53;37.28;;;24.38;;
36797;SDS011;22748;8.426;99.512;2024-02-26T15:02:24;32.25;;;21.25;;
36797;SDS011;22748;8.426;99.512;2024-02-26T15:05:08;29.90;;;20.05;;
36797;SDS011;22748;8.426;99.512;2024-02-26T15:07:43;29.17;;;19.55;;
36797;SDS011;22748;8.426;99.512;2024-02-26T15:10:28;33.40;;;21.83;;
36797;SDS011;22748;8.426;99.512;2024-02-26T15:13:11;29.65;;;20.40;;
36797;SDS011;22748;8.426;99.512;2024-02-26T15:15:58;31.52;;;20.67;;
36797;SDS011;22748;8.426;99.512;2024-02-26T15:18:42;26.30;;;19.95;;
36797;SDS011;22748;8.426;99.512;2024-02-26T15:21:41;30.75;;;19.23;;
36797;SDS011;22748;8.426;99.512;2024-02-26T15:24:16;25.67;;;16.95;;
36797;SDS011;22748;8.426;99.512;2024-02-26T15:26:59;26.52;;;20.10;;
36797;SDS011;22748;8.426;99.512;2024-02-26T15:32:30;28.25;;;19.00;;
36797;SDS011;22748;8.426;99.512;2024-02-26T15:36:10;32.97;;;19.40;;
36797;SDS011;22748;8.426;99.512;2024-02-26T15:43:53;26.23;;;18.73;;